Time;durP1;ratioP1;P1;durP2;ratioP2;P2;SDS_P1;SDS_P2;PMS_P1;PMS_P2;Temp;Humidity;BMP_temperature;BMP_pressure;BME280_temperature;BME280_humidity;BME280_pressure;Samples;Min_cycle;Max_cycle;Signal;HPM_P1;HPM_P2
2021/01/24 00:00:32;;;;;;;;;;;7.80;76.10;;;;;;5033953;27;117533;-85
2021/01/24 00:02:57;;;;;;;;;;;7.80;76.10;;;;;;5034065;27;117502;-85
2021/01/24 00:05:23;;;;;;;;;;;7.80;76.00;;;;;;5032900;27;121098;-85
2021/01/24 00:07:48;;;;;;;;;;;7.80;76.10;;;;;;5032533;27;119156;-84
2021/01/24 00:10:14;;;;;;;;;;;7.80;76.20;;;;;;5033899;27;117242;-85
2021/01/24 00:12:40;;;;;;;;;;;7.80;76.00;;;;;;5033998;27;117289;-85
2021/01/24 00:15:06;;;;;;;;;;;7.80;76.10;;;;;;5049857;27;118429;-85
2021/01/24 00:17:31;;;;;;;;;;;7.80;76.10;;;;;;5032603;27;119848;-84
2021/01/24 00:19:59;;;;;;;;;;;7.80;76.20;;;;;;5033461;27;117469;-85
2021/01/24 00:22:24;;;;;;;;;;;7.80;76.30;;;;;;5034140;27;117491;-85
2021/01/24 00:24:50;;;;;;;;;;;7.80;76.10;;;;;;5032599;27;120416;-85
2021/01/24 00:27:15;;;;;;;;;;;7.80;76.10;;;;;;5032793;27;119232;-85
2021/01/24 00:29:41;;;;;;;;;;;7.80;76.80;;;;;;5050431;27;117387;-85
2021/01/24 00:32:06;;;;;;;;;;;7.80;76.20;;;;;;5033408;27;117816;-84
2021/01/24 00:34:32;;;;;;;;;;;7.80;76.20;;;;;;5032185;27;120418;-84
2021/01/24 00:36:57;;;;;;;;;;;7.80;76.30;;;;;;5032323;27;122521;-85
2021/01/24 00:39:23;;;;;;;;;;;7.80;76.20;;;;;;5032059;27;117636;-85
2021/01/24 00:41:48;;;;;;;;;;;7.80;76.20;;;;;;5050817;27;117307;-85
2021/01/24 00:44:14;;;;;;;;;;;7.80;76.20;;;;;;5049381;27;118479;-85
2021/01/24 00:46:39;;;;;;;;;;;7.80;76.20;;;;;;5049566;27;117276;-85
2021/01/24 00:49:05;;;;;;;;;;;7.80;76.20;;;;;;5033060;27;117575;-84
2021/01/24 00:51:30;;;;;;;;;;;7.80;76.30;;;;;;5033355;27;117945;-85
2021/01/24 00:53:56;;;;;;;;;;;7.80;76.30;;;;;;5032023;27;120175;-85
2021/01/24 00:56:21;;;;;;;;;;;7.70;76.20;;;;;;5031941;27;120702;-85
2021/01/24 00:58:47;;;;;;;;;;;7.80;76.30;;;;;;5049540;27;117925;-85
2021/01/24 01:01:12;;;;;;;;;;;7.80;76.30;;;;;;5033030;27;117473;-84
2021/01/24 01:03:40;;;;;;;;;;;7.80;76.40;;;;;;5031930;27;120121;-85
2021/01/24 01:06:06;;;;;;;;;;;7.70;76.30;;;;;;5032204;27;120629;-85
2021/01/24 01:08:31;;;;;;;;;;;7.70;76.30;;;;;;5032619;27;117479;-85
2021/01/24 01:10:57;;;;;;;;;;;7.70;76.30;;;;;;5033259;27;117313;-85
2021/01/24 01:13:22;;;;;;;;;;;7.80;76.40;;;;;;5031816;27;121138;-85
2021/01/24 01:15:48;;;;;;;;;;;7.70;76.30;;;;;;5031826;27;119606;-85
2021/01/24 01:18:13;;;;;;;;;;;7.70;76.40;;;;;;5032556;27;117376;-85
2021/01/24 01:20:39;;;;;;;;;;;7.70;76.40;;;;;;5032674;27;117779;-85
2021/01/24 01:23:04;;;;;;;;;;;7.70;76.40;;;;;;5031452;27;120211;-85
2021/01/24 01:25:30;;;;;;;;;;;7.70;76.40;;;;;;5048832;27;117803;-85
2021/01/24 01:27:55;;;;;;;;;;;7.70;76.40;;;;;;5032514;27;117373;-85
2021/01/24 01:30:21;;;;;;;;;;;7.70;76.40;;;;;;5032509;27;117914;-84
2021/01/24 01:32:46;;;;;;;;;;;7.70;76.40;;;;;;5031460;27;120346;-85
2021/01/24 01:35:12;;;;;;;;;;;7.70;76.40;;;;;;5031416;27;119722;-85
2021/01/24 01:37:37;;;;;;;;;;;7.70;76.40;;;;;;5032502;27;117794;-84
2021/01/24 01:40:04;;;;;;;;;;;7.70;76.40;;;;;;5049671;27;117769;-85
2021/01/24 01:42:29;;;;;;;;;;;7.70;76.40;;;;;;5031277;27;120335;-85
2021/01/24 01:44:55;;;;;;;;;;;7.70;76.40;;;;;;5048318;27;117478;-85
2021/01/24 01:47:21;;;;;;;;;;;7.70;76.40;;;;;;5049713;27;117561;-85
2021/01/24 01:49:47;;;;;;;;;;;7.70;76.40;;;;;;5049341;27;117302;-85
2021/01/24 01:52:13;;;;;;;;;;;7.70;76.40;;;;;;5030916;27;121108;-85
2021/01/24 01:54:40;;;;;;;;;;;7.70;76.40;;;;;;5031179;27;119248;-85
2021/01/24 01:57:05;;;;;;;;;;;7.80;76.50;;;;;;5031994;27;117303;-85
2021/01/24 01:59:30;;;;;;;;;;;7.70;76.40;;;;;;5031826;27;117370;-85
2021/01/24 02:02:01;;;;;;;;;;;7.70;76.50;;;;;;5047464;27;139728;-85
2021/01/24 02:04:27;;;;;;;;;;;7.70;76.50;;;;;;5031131;27;120598;-85
2021/01/24 02:06:58;;;;;;;;;;;7.70;76.70;;;;;;5048971;27;117352;-85
2021/01/24 02:09:26;;;;;;;;;;;7.70;76.60;;;;;;5032001;27;117720;-85
2021/01/24 02:11:54;;;;;;;;;;;7.70;76.60;;;;;;5030998;27;121581;-85
2021/01/24 02:14:28;;;;;;;;;;;7.70;76.60;;;;;;5031125;27;119227;-85
2021/01/24 02:16:54;;;;;;;;;;;7.70;76.70;;;;;;5032078;27;117372;-85
2021/01/24 02:19:33;;;;;;;;;;;7.70;76.80;;;;;;5031991;27;117356;-85
2021/01/24 02:21:59;;;;;;;;;;;7.70;76.90;;;;;;5048060;27;117494;-85
2021/01/24 02:24:24;;;;;;;;;;;7.60;76.90;;;;;;5030683;27;121898;-85
2021/01/24 02:27:11;;;;;;;;;;;7.60;76.90;;;;;;5032046;27;117517;-85
2021/01/24 02:29:57;;;;;;;;;;;7.60;76.90;;;;;;5031832;27;117209;-85
2021/01/24 02:32:23;;;;;;;;;;;7.60;76.80;;;;;;4995345;27;120542;-85
2021/01/24 02:34:48;;;;;;;;;;;7.60;76.70;;;;;;5047749;27;117746;-85
2021/01/24 02:37:14;;;;;;;;;;;7.60;76.60;;;;;;5031518;27;117348;-85
2021/01/24 02:39:39;;;;;;;;;;;7.50;76.60;;;;;;5031782;27;117476;-85
2021/01/24 02:42:05;;;;;;;;;;;7.50;76.60;;;;;;5030293;27;121485;-85
2021/01/24 02:44:30;;;;;;;;;;;7.50;76.60;;;;;;5030669;27;121352;-85
2021/01/24 02:46:56;;;;;;;;;;;7.50;76.60;;;;;;5048955;27;117199;-84
2021/01/24 02:49:22;;;;;;;;;;;7.50;76.60;;;;;;5031463;27;117546;-85
2021/01/24 02:51:47;;;;;;;;;;;7.50;76.50;;;;;;5030851;27;120418;-85
2021/01/24 02:54:13;;;;;;;;;;;7.50;76.30;;;;;;5047653;27;117863;-85
2021/01/24 02:56:38;;;;;;;;;;;7.50;76.90;;;;;;5031254;27;117503;-85
2021/01/24 02:59:04;;;;;;;;;;;7.50;76.50;;;;;;5030705;27;117480;-85
2021/01/24 03:01:30;;;;;;;;;;;7.50;76.30;;;;;;5030196;27;121303;-85
2021/01/24 03:03:55;;;;;;;;;;;7.50;76.40;;;;;;5033707;27;119632;-83
2021/01/24 03:06:21;;;;;;;;;;;7.50;76.30;;;;;;5035016;27;117814;-83
2021/01/24 03:08:46;;;;;;;;;;;7.50;76.40;;;;;;5052032;27;117851;-83
2021/01/24 03:11:12;;;;;;;;;;;7.50;76.30;;;;;;5033516;27;121221;-83
2021/01/24 03:13:38;;;;;;;;;;;7.50;75.80;;;;;;5033698;27;120711;-83
2021/01/24 03:16:04;;;;;;;;;;;7.50;76.20;;;;;;5051714;27;117547;-83
2021/01/24 03:18:29;;;;;;;;;;;7.40;76.20;;;;;;5034679;27;117437;-83
2021/01/24 03:20:55;;;;;;;;;;;7.40;76.10;;;;;;5050884;27;117529;-83
2021/01/24 03:23:21;;;;;;;;;;;7.40;76.00;;;;;;5033183;27;119471;-83
2021/01/24 03:25:46;;;;;;;;;;;7.40;76.10;;;;;;5034446;27;117855;-83
2021/01/24 03:28:12;;;;;;;;;;;7.40;75.90;;;;;;5051700;27;117469;-83
2021/01/24 03:30:37;;;;;;;;;;;7.40;75.80;;;;;;5033322;27;121539;-83
2021/01/24 03:33:05;;;;;;;;;;;7.40;75.90;;;;;;5050654;27;117489;-83
2021/01/24 03:35:31;;;;;;;;;;;7.40;76.00;;;;;;5034445;27;117489;-83
2021/01/24 03:37:56;;;;;;;;;;;7.40;75.80;;;;;;5034464;27;117745;-83
2021/01/24 03:40:22;;;;;;;;;;;7.40;76.40;;;;;;5033056;27;120219;-83
2021/01/24 03:42:47;;;;;;;;;;;7.40;75.80;;;;;;5050186;27;117932;-83
2021/01/24 03:45:13;;;;;;;;;;;7.40;75.70;;;;;;5034233;27;117604;-83
2021/01/24 03:47:39;;;;;;;;;;;7.40;75.70;;;;;;5034133;27;117546;-83
2021/01/24 03:50:05;;;;;;;;;;;7.40;75.60;;;;;;5032880;27;121136;-83
2021/01/24 03:52:30;;;;;;;;;;;7.40;75.60;;;;;;5033000;27;120955;-83
2021/01/24 03:54:56;;;;;;;;;;;7.40;75.60;;;;;;5034176;27;117499;-83
2021/01/24 03:57:21;;;;;;;;;;;7.40;75.80;;;;;;5051417;27;117642;-83
2021/01/24 03:59:51;;;;;;;;;;;7.40;75.60;;;;;;5032358;27;121422;-83
2021/01/24 04:02:20;;;;;;;;;;;7.40;75.70;;;;;;5050586;27;117613;-83
2021/01/24 04:04:46;;;;;;;;;;;7.40;75.60;;;;;;5034190;27;117359;-83
2021/01/24 04:07:11;;;;;;;;;;;7.40;75.60;;;;;;5034427;27;117431;-83
2021/01/24 04:09:37;;;;;;;;;;;7.40;75.50;;;;;;5032297;27;120560;-83
2021/01/24 04:12:02;;;;;;;;;;;7.30;75.40;;;;;;5032542;27;119199;-83
2021/01/24 04:14:28;;;;;;;;;;;7.30;75.30;;;;;;5050729;27;117531;-83
2021/01/24 04:16:53;;;;;;;;;;;7.30;75.40;;;;;;5033913;27;117832;-83
2021/01/24 04:19:19;;;;;;;;;;;7.30;75.30;;;;;;5032649;27;120100;-83
2021/01/24 04:21:44;;;;;;;;;;;7.30;75.00;;;;;;5032710;27;119209;-83
2021/01/24 04:24:10;;;;;;;;;;;7.30;75.10;;;;;;5033318;27;117818;-83
2021/01/24 04:26:35;;;;;;;;;;;7.30;75.20;;;;;;5033655;27;117801;-83
2021/01/24 04:29:01;;;;;;;;;;;7.30;74.90;;;;;;5032275;27;120465;-83
2021/01/24 04:31:27;;;;;;;;;;;7.30;75.00;;;;;;5032609;27;121003;-83
2021/01/24 04:33:52;;;;;;;;;;;7.30;74.90;;;;;;5033450;27;117305;-83
2021/01/24 04:36:18;;;;;;;;;;;7.30;74.90;;;;;;5033442;27;117354;-83
2021/01/24 04:38:43;;;;;;;;;;;7.30;74.80;;;;;;5032259;27;119848;-83
2021/01/24 04:41:09;;;;;;;;;;;7.30;75.00;;;;;;5032112;27;120321;-83
2021/01/24 04:43:34;;;;;;;;;;;7.30;75.10;;;;;;5033268;27;117334;-83
2021/01/24 04:46:00;;;;;;;;;;;7.30;74.80;;;;;;5050724;27;117344;-83
2021/01/24 04:48:26;;;;;;;;;;;7.30;74.70;;;;;;5031944;27;119680;-83
2021/01/24 04:50:52;;;;;;;;;;;7.30;74.60;;;;;;5032293;27;120286;-83
2021/01/24 04:53:17;;;;;;;;;;;7.30;74.60;;;;;;5050546;27;117461;-83
2021/01/24 04:55:43;;;;;;;;;;;7.30;74.10;;;;;;5033583;27;117493;-83
2021/01/24 04:58:08;;;;;;;;;;;7.30;74.30;;;;;;5031577;27;121616;-83
2021/01/24 05:00:34;;;;;;;;;;;7.30;74.30;;;;;;5031615;27;120935;-83
2021/01/24 05:03:00;;;;;;;;;;;7.30;74.40;;;;;;5032874;27;117507;-83
2021/01/24 05:05:25;;;;;;;;;;;7.30;74.40;;;;;;5033059;27;117590;-83
2021/01/24 05:07:54;;;;;;;;;;;7.30;74.40;;;;;;5032031;27;120491;-83
2021/01/24 05:10:27;;;;;;;;;;;7.20;74.40;;;;;;5031515;27;120762;-83
2021/01/24 05:12:56;;;;;;;;;;;7.30;74.40;;;;;;5032847;27;117252;-83
2021/01/24 05:15:21;;;;;;;;;;;7.20;74.30;;;;;;5049981;27;118176;-83
2021/01/24 05:17:48;;;;;;;;;;;7.20;74.20;;;;;;5031751;27;121875;-83
2021/01/24 05:20:14;;;;;;;;;;;7.20;73.90;;;;;;5031551;27;119593;-83
2021/01/24 05:22:40;;;;;;;;;;;7.20;74.20;;;;;;5032632;27;117522;-83
2021/01/24 05:25:05;;;;;;;;;;;7.20;74.00;;;;;;5031968;27;117776;-83
2021/01/24 05:27:31;;;;;;;;;;;7.20;73.90;;;;;;5031662;27;121261;-83
2021/01/24 05:29:56;;;;;;;;;;;7.20;73.90;;;;;;5048665;27;117566;-83
2021/01/24 05:32:22;;;;;;;;;;;7.20;73.90;;;;;;5032675;27;117333;-83
2021/01/24 05:34:51;;;;;;;;;;;7.20;73.90;;;;;;5032883;27;117417;-83
2021/01/24 05:37:16;;;;;;;;;;;7.20;74.00;;;;;;5048957;27;118344;-83
2021/01/24 05:39:42;;;;;;;;;;;7.20;73.80;;;;;;5031067;27;121057;-83
2021/01/24 05:42:08;;;;;;;;;;;7.20;73.50;;;;;;5032471;27;117464;-83
2021/01/24 05:44:33;;;;;;;;;;;7.20;73.70;;;;;;5032496;27;117478;-83
2021/01/24 05:47:02;;;;;;;;;;;7.20;73.90;;;;;;5031245;27;120252;-83
2021/01/24 05:49:28;;;;;;;;;;;7.20;73.70;;;;;;5030938;27;120703;-83
2021/01/24 05:52:03;;;;;;;;;;;7.20;73.50;;;;;;5032146;27;117505;-83
2021/01/24 05:54:55;;;;;;;;;;;7.20;73.40;;;;;;5049309;27;117356;-83
2021/01/24 05:57:22;;;;;;;;;;;7.20;73.60;;;;;;5042946;27;120425;-83
2021/01/24 05:59:54;;;;;;;;;;;7.20;73.20;;;;;;5030411;27;120990;-83
2021/01/24 06:02:20;;;;;;;;;;;7.20;73.30;;;;;;5032147;27;117559;-83
2021/01/24 06:04:47;;;;;;;;;;;7.10;73.10;;;;;;5032390;27;117784;-83
2021/01/24 06:07:12;;;;;;;;;;;7.10;73.30;;;;;;5048497;27;117863;-83
2021/01/24 06:09:38;;;;;;;;;;;7.10;72.50;;;;;;5030877;27;120380;-83
2021/01/24 06:12:04;;;;;;;;;;;7.10;73.10;;;;;;5032190;27;117585;-83
2021/01/24 06:14:29;;;;;;;;;;;7.10;72.90;;;;;;5032093;27;117349;-83
2021/01/24 06:16:55;;;;;;;;;;;7.10;73.10;;;;;;5030881;27;120259;-83
2021/01/24 06:19:20;;;;;;;;;;;7.10;72.60;;;;;;5047772;27;117378;-83
2021/01/24 06:21:47;;;;;;;;;;;7.10;72.70;;;;;;5031801;27;117544;-83
2021/01/24 06:24:13;;;;;;;;;;;7.10;72.70;;;;;;5032097;27;117513;-83
2021/01/24 06:26:41;;;;;;;;;;;7.10;72.70;;;;;;5047465;27;121498;-83
2021/01/24 06:29:07;;;;;;;;;;;7.10;72.90;;;;;;5030481;27;120218;-83
2021/01/24 06:31:32;;;;;;;;;;;7.10;72.70;;;;;;5031841;27;117545;-83
2021/01/24 06:34:06;;;;;;;;;;;7.10;72.20;;;;;;5031946;27;117851;-83
2021/01/24 06:36:35;;;;;;;;;;;7.10;72.30;;;;;;5031469;27;121638;-83
2021/01/24 06:39:01;;;;;;;;;;;7.10;72.20;;;;;;5033851;27;118963;-83
2021/01/24 06:41:46;;;;;;;;;;;7.10;72.40;;;;;;5035279;27;117558;-83
2021/01/24 06:44:30;;;;;;;;;;;7.10;72.10;;;;;;5035559;27;117290;-83
2021/01/24 06:46:55;;;;;;;;;;;7.10;72.10;;;;;;5050850;27;119759;-83
2021/01/24 06:49:56;;;;;;;;;;;7.10;72.30;;;;;;5033732;27;120027;-83
2021/01/24 06:52:22;;;;;;;;;;;7.00;72.20;;;;;;4950721;28;117380;-83
2021/01/24 06:54:48;;;;;;;;;;;7.10;72.60;;;;;;5030768;27;118073;-83
2021/01/24 06:57:13;;;;;;;;;;;7.10;72.40;;;;;;5034032;27;121566;-83
2021/01/24 06:59:39;;;;;;;;;;;7.00;72.10;;;;;;5033169;27;119459;-83
2021/01/24 07:02:23;;;;;;;;;;;7.10;72.20;;;;;;5034729;27;117337;-83
2021/01/24 07:05:08;;;;;;;;;;;7.00;72.30;;;;;;5070403;27;117698;-83
2021/01/24 07:07:34;;;;;;;;;;;7.00;72.50;;;;;;5033512;27;120360;-83
2021/01/24 07:09:59;;;;;;;;;;;7.00;72.50;;;;;;5033476;27;121009;-83
2021/01/24 07:12:35;;;;;;;;;;;7.00;72.40;;;;;;5034914;27;117405;-83
2021/01/24 07:15:00;;;;;;;;;;;7.00;72.50;;;;;;5052200;27;117739;-83
2021/01/24 07:17:26;;;;;;;;;;;7.00;72.50;;;;;;5033661;27;120290;-83
2021/01/24 07:19:55;;;;;;;;;;;7.00;72.40;;;;;;5033333;27;119491;-83
2021/01/24 07:22:22;;;;;;;;;;;7.00;72.60;;;;;;5034616;27;117554;-83
2021/01/24 07:24:48;;;;;;;;;;;7.00;72.50;;;;;;5051892;27;117761;-83
2021/01/24 07:27:20;;;;;;;;;;;7.10;72.60;;;;;;5033309;27;120268;-83
2021/01/24 07:29:46;;;;;;;;;;;7.00;72.60;;;;;;5032944;27;119555;-83
2021/01/24 07:32:20;;;;;;;;;;;7.00;72.70;;;;;;5034445;27;117628;-83
2021/01/24 07:34:46;;;;;;;;;;;7.00;72.70;;;;;;5034595;27;117554;-83
2021/01/24 07:37:15;;;;;;;;;;;7.00;72.80;;;;;;5033373;27;121632;-83
2021/01/24 07:39:41;;;;;;;;;;;7.00;72.70;;;;;;5033559;27;119508;-83
2021/01/24 07:42:07;;;;;;;;;;;7.00;72.80;;;;;;5051519;27;117228;-83
2021/01/24 07:44:32;;;;;;;;;;;7.00;72.90;;;;;;5034231;27;117499;-83
2021/01/24 07:46:58;;;;;;;;;;;7.00;72.80;;;;;;5050662;27;118688;-83
2021/01/24 07:49:23;;;;;;;;;;;7.00;72.80;;;;;;5032168;27;120555;-83
2021/01/24 07:51:49;;;;;;;;;;;7.00;72.70;;;;;;5034117;27;117593;-83
2021/01/24 07:54:14;;;;;;;;;;;7.00;72.70;;;;;;5033984;27;117539;-83
2021/01/24 07:56:40;;;;;;;;;;;7.00;72.70;;;;;;5032849;27;121441;-83
2021/01/24 07:59:06;;;;;;;;;;;7.00;72.60;;;;;;5032484;27;119753;-83
2021/01/24 08:01:31;;;;;;;;;;;7.00;72.70;;;;;;5034011;27;117451;-83
2021/01/24 08:03:59;;;;;;;;;;;7.00;72.40;;;;;;5034097;27;117480;-83
2021/01/24 08:06:25;;;;;;;;;;;7.00;72.40;;;;;;5032693;27;121291;-83
2021/01/24 08:08:50;;;;;;;;;;;6.90;72.20;;;;;;5032705;27;119639;-83
2021/01/24 08:11:16;;;;;;;;;;;7.00;72.50;;;;;;5034039;27;117552;-83
2021/01/24 08:13:41;;;;;;;;;;;7.00;72.20;;;;;;5051318;27;117260;-83
2021/01/24 08:16:11;;;;;;;;;;;6.90;72.10;;;;;;5032956;27;119935;-83
2021/01/24 08:18:37;;;;;;;;;;;6.90;72.30;;;;;;5049236;27;117886;-83
2021/01/24 08:21:03;;;;;;;;;;;6.90;72.20;;;;;;5033627;27;117561;-83
2021/01/24 08:23:28;;;;;;;;;;;6.90;72.50;;;;;;5033783;27;117587;-83
2021/01/24 08:25:57;;;;;;;;;;;6.90;72.50;;;;;;5032447;27;120128;-83
2021/01/24 08:28:22;;;;;;;;;;;7.00;72.60;;;;;;5032307;27;119415;-83
2021/01/24 08:30:48;;;;;;;;;;;7.00;72.60;;;;;;5033303;27;117796;-83
2021/01/24 08:33:15;;;;;;;;;;;6.90;72.60;;;;;;5033715;27;117447;-83
2021/01/24 08:35:41;;;;;;;;;;;7.00;72.60;;;;;;5032758;27;121435;-83
2021/01/24 08:38:06;;;;;;;;;;;6.90;72.70;;;;;;5032631;27;119156;-83
2021/01/24 08:40:32;;;;;;;;;;;6.90;72.70;;;;;;5033563;27;117475;-83
2021/01/24 08:42:58;;;;;;;;;;;7.00;72.70;;;;;;5033133;27;117302;-83
2021/01/24 08:45:25;;;;;;;;;;;6.90;72.70;;;;;;5032246;27;121298;-83
2021/01/24 08:47:51;;;;;;;;;;;6.90;72.60;;;;;;5032233;27;120408;-83
2021/01/24 08:50:16;;;;;;;;;;;6.90;72.70;;;;;;5050002;27;117634;-83
2021/01/24 08:52:42;;;;;;;;;;;6.90;72.70;;;;;;5050605;27;118008;-83
2021/01/24 08:55:08;;;;;;;;;;;6.90;72.70;;;;;;5031961;27;121264;-83
2021/01/24 08:57:33;;;;;;;;;;;6.90;72.70;;;;;;5031919;27;119486;-83
2021/01/24 09:00:00;;;;;;;;;;;6.90;72.70;;;;;;5031862;27;117503;-83
2021/01/24 09:02:28;;;;;;;;;;;6.90;72.60;;;;;;5032863;27;117754;-83
2021/01/24 09:04:54;;;;;;;;;;;6.90;72.70;;;;;;5067377;27;118655;-83
2021/01/24 09:07:20;;;;;;;;;;;6.90;72.80;;;;;;5031824;27;120290;-83
2021/01/24 09:09:47;;;;;;;;;;;6.90;72.70;;;;;;5033141;27;117308;-83
2021/01/24 09:12:13;;;;;;;;;;;6.90;72.70;;;;;;5033475;27;117523;-83
2021/01/24 09:14:39;;;;;;;;;;;6.90;72.70;;;;;;5049186;27;118785;-83
2021/01/24 09:17:06;;;;;;;;;;;6.90;72.70;;;;;;5031813;27;119454;-83
2021/01/24 09:19:33;;;;;;;;;;;6.90;72.80;;;;;;5032680;27;117507;-83
2021/01/24 09:21:58;;;;;;;;;;;6.90;72.90;;;;;;5032821;27;117761;-83
2021/01/24 09:24:24;;;;;;;;;;;6.90;72.90;;;;;;5031664;27;121575;-83
2021/01/24 09:26:49;;;;;;;;;;;6.90;72.80;;;;;;5031700;27;120456;-83
2021/01/24 09:29:15;;;;;;;;;;;6.90;72.90;;;;;;5032515;27;117499;-82
2021/01/24 09:31:41;;;;;;;;;;;6.90;72.70;;;;;;5049763;27;117667;-82
2021/01/24 09:34:06;;;;;;;;;;;6.90;72.80;;;;;;5031307;27;119955;-82
2021/01/24 09:36:32;;;;;;;;;;;6.90;72.90;;;;;;5031347;27;119186;-82
2021/01/24 09:38:57;;;;;;;;;;;6.90;72.90;;;;;;5032239;27;118033;-82
2021/01/24 09:41:23;;;;;;;;;;;6.90;72.90;;;;;;5049869;27;117524;-82
2021/01/24 09:43:48;;;;;;;;;;;6.90;72.80;;;;;;5031151;27;121470;-82
2021/01/24 09:46:14;;;;;;;;;;;6.90;72.90;;;;;;5031220;27;120864;-82
2021/01/24 09:48:39;;;;;;;;;;;6.90;72.80;;;;;;5032426;27;117525;-83
2021/01/24 09:51:08;;;;;;;;;;;6.90;72.70;;;;;;5032593;27;117583;-83
2021/01/24 09:53:36;;;;;;;;;;;6.90;72.80;;;;;;5031429;27;120693;-83
2021/01/24 09:56:05;;;;;;;;;;;6.90;72.80;;;;;;5031382;27;120587;-83
2021/01/24 09:58:31;;;;;;;;;;;6.90;72.80;;;;;;5031872;27;117421;-83
2021/01/24 10:00:56;;;;;;;;;;;6.90;72.90;;;;;;5032556;27;117441;-83
2021/01/24 10:03:22;;;;;;;;;;;6.90;72.90;;;;;;5030999;27;120337;-83
2021/01/24 10:05:47;;;;;;;;;;;6.90;72.90;;;;;;5030852;27;120302;-83
2021/01/24 10:08:13;;;;;;;;;;;6.90;72.90;;;;;;5031919;27;117576;-83
2021/01/24 10:10:38;;;;;;;;;;;6.90;72.80;;;;;;5032254;27;117855;-83
2021/01/24 10:13:04;;;;;;;;;;;6.90;72.70;;;;;;5030657;27;121399;-83
2021/01/24 10:15:29;;;;;;;;;;;6.90;72.90;;;;;;5031026;27;120129;-83
2021/01/24 10:17:55;;;;;;;;;;;6.90;72.90;;;;;;5032034;27;117483;-83
2021/01/24 10:20:20;;;;;;;;;;;6.80;72.80;;;;;;5031773;27;117823;-83
2021/01/24 10:22:46;;;;;;;;;;;6.80;72.90;;;;;;5047628;27;120233;-82
2021/01/24 10:25:12;;;;;;;;;;;6.80;73.00;;;;;;5030771;27;119199;-82
2021/01/24 10:27:37;;;;;;;;;;;6.80;72.90;;;;;;5031931;27;117535;-82
2021/01/24 10:30:03;;;;;;;;;;;6.90;72.90;;;;;;5048969;27;117799;-82
2021/01/24 10:32:28;;;;;;;;;;;6.80;72.80;;;;;;5047748;27;117609;-82
2021/01/24 10:34:54;;;;;;;;;;;6.80;72.80;;;;;;5048268;27;118422;-82
2021/01/24 10:37:19;;;;;;;;;;;6.80;72.90;;;;;;5049203;27;117339;-83
2021/01/24 10:39:45;;;;;;;;;;;6.90;72.90;;;;;;5031641;27;117491;-83
2021/01/24 10:42:10;;;;;;;;;;;6.90;73.00;;;;;;5030514;27;121519;-83
2021/01/24 10:44:36;;;;;;;;;;;6.90;73.00;;;;;;5030248;27;120567;-83
2021/01/24 10:47:01;;;;;;;;;;;6.80;73.00;;;;;;5048850;27;117565;-83
2021/01/24 10:49:27;;;;;;;;;;;6.90;73.10;;;;;;5031489;27;118028;-83
2021/01/24 10:51:52;;;;;;;;;;;6.80;72.90;;;;;;5030609;27;120349;-83
2021/01/24 10:54:18;;;;;;;;;;;6.80;72.90;;;;;;5030492;27;119659;-83
2021/01/24 10:56:44;;;;;;;;;;;6.80;72.80;;;;;;5048874;27;117320;-83
2021/01/24 10:59:10;;;;;;;;;;;6.80;72.90;;;;;;5030808;27;117718;-83
2021/01/24 11:01:35;;;;;;;;;;;6.80;72.90;;;;;;5030833;27;120023;-83
2021/01/24 11:04:01;;;;;;;;;;;6.80;72.80;;;;;;5030149;27;120597;-83
2021/01/24 11:06:26;;;;;;;;;;;6.80;73.50;;;;;;5031301;27;117553;-83
2021/01/24 11:08:52;;;;;;;;;;;6.80;72.80;;;;;;5031024;27;117836;-83
2021/01/24 11:11:17;;;;;;;;;;;6.80;72.80;;;;;;5030264;27;120326;-83
2021/01/24 11:13:43;;;;;;;;;;;6.80;72.80;;;;;;5047403;27;117563;-83
2021/01/24 11:16:08;;;;;;;;;;;6.80;72.90;;;;;;5031327;27;117435;-83
2021/01/24 11:18:34;;;;;;;;;;;6.80;72.90;;;;;;5031367;27;117458;-83
2021/01/24 11:20:59;;;;;;;;;;;6.80;72.80;;;;;;5030154;27;121194;-83
2021/01/24 11:23:25;;;;;;;;;;;6.80;72.70;;;;;;5047518;27;122810;-86
2021/01/24 11:25:50;;;;;;;;;;;6.80;72.80;;;;;;5034707;27;117603;-85
2021/01/24 11:28:16;;;;;;;;;;;6.80;72.90;;;;;;5034185;27;117549;-85
2021/01/24 11:30:41;;;;;;;;;;;6.80;72.60;;;;;;5051060;27;117730;-85
2021/01/24 11:33:07;;;;;;;;;;;6.80;72.60;;;;;;5033426;27;120104;-85
2021/01/24 11:35:32;;;;;;;;;;;6.80;72.70;;;;;;5034286;27;117470;-85
2021/01/24 11:37:58;;;;;;;;;;;6.80;72.80;;;;;;5034389;27;117840;-85
2021/01/24 11:40:23;;;;;;;;;;;6.80;72.60;;;;;;5032902;27;121233;-85
2021/01/24 11:42:49;;;;;;;;;;;6.80;72.50;;;;;;5032996;27;120371;-85
2021/01/24 11:45:14;;;;;;;;;;;6.80;72.50;;;;;;5034336;27;117571;-85
2021/01/24 11:47:40;;;;;;;;;;;6.80;72.60;;;;;;5034240;27;117343;-85
2021/01/24 11:50:05;;;;;;;;;;;6.80;72.50;;;;;;5033086;27;121581;-85
2021/01/24 11:52:31;;;;;;;;;;;6.80;72.30;;;;;;5033349;27;120458;-85
2021/01/24 11:54:57;;;;;;;;;;;6.70;72.30;;;;;;5034069;27;117503;-85
2021/01/24 11:57:22;;;;;;;;;;;6.70;72.30;;;;;;5034038;27;117995;-85
2021/01/24 11:59:47;;;;;;;;;;;6.70;72.30;;;;;;5032512;27;120282;-85
2021/01/24 12:02:13;;;;;;;;;;;6.70;72.10;;;;;;5032897;27;119729;-85
2021/01/24 12:04:38;;;;;;;;;;;6.70;72.30;;;;;;5051258;27;117525;-85
2021/01/24 12:07:04;;;;;;;;;;;6.70;72.20;;;;;;5034163;27;117876;-85
2021/01/24 12:09:30;;;;;;;;;;;6.70;72.30;;;;;;5032826;27;120120;-85
2021/01/24 12:11:55;;;;;;;;;;;6.70;72.20;;;;;;5049992;27;117478;-85
2021/01/24 12:14:21;;;;;;;;;;;6.70;72.30;;;;;;5034091;27;117462;-85
2021/01/24 12:16:46;;;;;;;;;;;6.70;72.10;;;;;;5033954;27;117500;-85
2021/01/24 12:19:12;;;;;;;;;;;6.70;72.20;;;;;;5032516;27;121207;-85
2021/01/24 12:21:37;;;;;;;;;;;6.70;72.20;;;;;;5032680;27;119334;-85
2021/01/24 12:24:03;;;;;;;;;;;6.70;72.20;;;;;;5033644;27;117581;-85
2021/01/24 12:26:29;;;;;;;;;;;6.70;72.30;;;;;;5033770;27;117924;-85
2021/01/24 12:28:54;;;;;;;;;;;6.70;72.20;;;;;;5032504;27;122077;-85
2021/01/24 12:31:20;;;;;;;;;;;6.70;72.20;;;;;;5032437;27;122347;-85
2021/01/24 12:33:45;;;;;;;;;;;6.70;72.10;;;;;;5033587;27;117361;-85
2021/01/24 12:36:11;;;;;;;;;;;6.70;72.20;;;;;;5033362;27;117729;-85
2021/01/24 12:38:36;;;;;;;;;;;6.70;72.20;;;;;;5049791;27;117315;-85
2021/01/24 12:41:02;;;;;;;;;;;6.70;72.10;;;;;;5049614;27;117613;-85
2021/01/24 12:43:28;;;;;;;;;;;6.70;72.20;;;;;;5033153;27;117438;-85
2021/01/24 12:45:54;;;;;;;;;;;6.70;72.10;;;;;;5033216;27;117556;-85
2021/01/24 12:48:19;;;;;;;;;;;6.60;72.10;;;;;;5049196;27;120294;-85
2021/01/24 12:50:45;;;;;;;;;;;6.70;72.20;;;;;;5032145;27;119615;-85
2021/01/24 12:53:10;;;;;;;;;;;6.70;72.10;;;;;;5033244;27;117572;-85
2021/01/24 12:55:36;;;;;;;;;;;6.70;72.00;;;;;;5033360;27;117487;-85
2021/01/24 12:58:01;;;;;;;;;;;6.70;71.90;;;;;;5032064;27;121520;-83
2021/01/24 13:00:27;;;;;;;;;;;6.70;71.90;;;;;;5031946;27;120562;-83
2021/01/24 13:02:52;;;;;;;;;;;6.60;71.90;;;;;;5033147;27;117790;-83
2021/01/24 13:05:18;;;;;;;;;;;6.60;71.70;;;;;;5050589;27;117506;-83
2021/01/24 13:07:43;;;;;;;;;;;6.60;71.60;;;;;;5031929;27;121365;-83
2021/01/24 13:10:09;;;;;;;;;;;6.60;71.70;;;;;;5031429;27;119646;-83
2021/01/24 13:12:36;;;;;;;;;;;6.70;71.80;;;;;;5032981;27;117470;-83
2021/01/24 13:15:02;;;;;;;;;;;6.60;72.10;;;;;;5033146;27;117968;-83
2021/01/24 13:17:28;;;;;;;;;;;6.70;72.60;;;;;;5031747;27;121499;-83
2021/01/24 13:19:53;;;;;;;;;;;6.70;72.80;;;;;;5031399;27;120624;-83
2021/01/24 13:22:19;;;;;;;;;;;6.70;73.10;;;;;;5049773;27;117350;-83
2021/01/24 13:24:44;;;;;;;;;;;6.70;73.60;;;;;;5050267;27;117574;-83
2021/01/24 13:27:10;;;;;;;;;;;6.70;74.00;;;;;;5031457;27;126735;-83
2021/01/24 13:29:35;;;;;;;;;;;6.70;73.50;;;;;;5031320;27;120674;-83
2021/01/24 13:32:01;;;;;;;;;;;6.70;73.10;;;;;;5049741;27;117616;-83
2021/01/24 13:34:26;;;;;;;;;;;6.70;73.60;;;;;;5032477;27;118008;-83
2021/01/24 13:36:52;;;;;;;;;;;6.70;73.70;;;;;;5031325;27;121146;-83
2021/01/24 13:39:17;;;;;;;;;;;6.70;74.30;;;;;;5066493;27;117460;-83
2021/01/24 13:41:43;;;;;;;;;;;6.70;74.60;;;;;;5032599;27;117553;-83
2021/01/24 13:44:08;;;;;;;;;;;6.70;74.10;;;;;;5032458;27;117731;-83
2021/01/24 13:46:34;;;;;;;;;;;6.80;75.20;;;;;;5047662;27;120309;-83
2021/01/24 13:48:59;;;;;;;;;;;6.70;74.60;;;;;;5031068;27;123380;-83
2021/01/24 13:51:25;;;;;;;;;;;6.70;73.90;;;;;;5032514;27;117287;-83
2021/01/24 13:53:50;;;;;;;;;;;6.70;74.00;;;;;;5032626;27;117394;-83
2021/01/24 13:56:16;;;;;;;;;;;6.80;75.00;;;;;;5031249;27;120386;-83
2021/01/24 13:58:41;;;;;;;;;;;6.70;74.70;;;;;;5030389;27;120294;-83
2021/01/24 14:01:07;;;;;;;;;;;6.70;74.90;;;;;;5032055;27;117813;-83
2021/01/24 14:03:32;;;;;;;;;;;6.80;75.10;;;;;;5049351;27;117776;-83
2021/01/24 14:05:58;;;;;;;;;;;6.80;74.60;;;;;;5031144;27;120340;-83
2021/01/24 14:08:23;;;;;;;;;;;6.70;74.20;;;;;;5030441;27;120938;-83
2021/01/24 14:10:49;;;;;;;;;;;6.80;75.10;;;;;;5032183;27;117879;-83